createdAt,value
2023-02-16T00:01:51.435Z,24.37
2023-02-16T00:04:22.386Z,26.03
2023-02-16T00:06:51.161Z,24.67
2023-02-16T00:09:20.186Z,24.33
2023-02-16T00:12:06.611Z,25.47
2023-02-16T00:14:36.241Z,24.63
2023-02-16T00:17:06.877Z,24.73
2023-02-16T00:19:37.805Z,25.33
2023-02-16T00:22:07.395Z,25.43
2023-02-16T00:24:35.905Z,25.70
2023-02-16T00:27:04.044Z,24.10
2023-02-16T00:29:34.948Z,23.83
2023-02-16T00:32:06.806Z,24.23
2023-02-16T00:34:37.459Z,24.63
2023-02-16T00:37:07.699Z,26.63
2023-02-16T00:39:36.710Z,25.97
2023-02-16T00:42:06.869Z,24.70
2023-02-16T00:44:37.409Z,24.73
2023-02-16T00:47:18.487Z,25.77
2023-02-16T00:49:46.789Z,23.40
2023-02-16T00:52:33.264Z,24.40
2023-02-16T00:55:04.047Z,24.10
2023-02-16T00:57:35.218Z,23.50
2023-02-16T01:00:09.821Z,23.87
2023-02-16T01:02:39.356Z,26.47
2023-02-16T01:05:08.029Z,23.93
2023-02-16T01:07:53.491Z,25.10
2023-02-16T01:10:39.691Z,25.00
2023-02-16T01:13:07.821Z,25.60
2023-02-16T01:15:37.179Z,23.70
2023-02-16T01:18:07.156Z,24.77
2023-02-16T01:20:37.334Z,25.13
2023-02-16T01:23:05.524Z,24.23
2023-02-16T01:25:33.712Z,24.67
2023-02-16T01:28:01.886Z,24.03
2023-02-16T01:30:30.381Z,24.97
2023-02-16T01:32:58.538Z,25.20
2023-02-16T01:35:32.632Z,24.33
2023-02-16T01:38:00.922Z,24.93
2023-02-16T01:40:39.678Z,25.17
2023-02-16T01:43:19.634Z,25.03
2023-02-16T01:45:52.367Z,24.93
2023-02-16T01:48:25.911Z,24.47
2023-02-16T01:51:00.585Z,23.30
2023-02-16T01:53:34.501Z,24.93
2023-02-16T01:56:06.619Z,24.97
2023-02-16T01:58:44.408Z,24.37
2023-02-16T02:01:38.852Z,24.13
2023-02-16T02:04:33.127Z,23.33
2023-02-16T02:07:02.610Z,23.90
2023-02-16T02:09:38.434Z,25.77
2023-02-16T02:12:18.156Z,24.37
2023-02-16T02:14:46.994Z,24.23
2023-02-16T02:17:19.886Z,24.33
2023-02-16T02:19:54.131Z,24.63
2023-02-16T02:23:12.484Z,26.43
2023-02-16T02:26:14.495Z,24.70
2023-02-16T02:28:51.793Z,25.03
2023-02-16T02:31:32.009Z,24.30
2023-02-16T02:34:10.924Z,23.83
2023-02-16T02:36:42.529Z,24.03
2023-02-16T02:39:25.650Z,24.07
2023-02-16T02:42:06.472Z,25.37
2023-02-16T02:44:43.646Z,24.93
2023-02-16T02:47:11.763Z,25.47
2023-02-16T02:49:39.849Z,25.10
2023-02-16T02:52:08.133Z,24.37
2023-02-16T02:55:07.035Z,26.30
2023-02-16T02:57:56.689Z,26.33
2023-02-16T03:06:01.906Z,25.87
2023-02-16T03:08:33.549Z,27.57
2023-02-16T03:11:24.714Z,26.83
2023-02-16T03:13:56.903Z,30.10
2023-02-16T03:16:29.595Z,31.40
2023-02-16T03:19:16.193Z,27.03
2023-02-16T03:22:03.612Z,24.80
2023-02-16T03:24:51.065Z,25.40
2023-02-16T03:27:42.853Z,24.37
2023-02-16T03:30:13.725Z,25.57
2023-02-16T03:32:42.215Z,24.77
2023-02-16T03:35:12.885Z,24.10
2023-02-16T03:37:43.096Z,24.17
2023-02-16T03:40:29.924Z,27.33
2023-02-16T03:43:00.578Z,27.20
2023-02-16T03:45:29.355Z,25.07
2023-02-16T03:47:57.464Z,26.87
2023-02-16T03:50:27.079Z,25.93
2023-02-16T03:53:06.752Z,27.73
2023-02-16T03:55:36.663Z,26.20
2023-02-16T03:58:05.564Z,27.07
2023-02-16T04:00:34.203Z,25.30
2023-02-16T04:03:02.397Z,26.80
2023-02-16T04:05:30.882Z,27.20
2023-02-16T04:08:00.581Z,27.70
2023-02-16T04:10:29.059Z,28.13
2023-02-16T04:12:56.158Z,27.10
2023-02-16T04:15:26.230Z,26.70
2023-02-16T04:17:55.069Z,28.33
2023-02-16T04:20:25.470Z,26.03
2023-02-16T04:22:53.771Z,27.73
2023-02-16T04:25:23.837Z,26.80
2023-02-16T04:27:52.404Z,28.67
2023-02-16T04:30:22.940Z,29.20
2023-02-16T04:32:51.469Z,27.93
2023-02-16T04:35:19.954Z,27.40
2023-02-16T04:37:48.472Z,30.10
2023-02-16T04:40:18.153Z,27.57
2023-02-16T04:42:47.946Z,29.33
2023-02-16T04:45:16.224Z,27.83
2023-02-16T04:47:44.354Z,27.60
2023-02-16T04:50:13.379Z,27.60
2023-02-16T04:52:41.579Z,26.97
2023-02-16T04:55:10.863Z,26.63
2023-02-16T04:57:39.309Z,26.80
2023-02-16T05:00:11.797Z,27.40
2023-02-16T05:02:40.021Z,26.57
2023-02-16T05:05:09.105Z,26.17
2023-02-16T05:07:37.283Z,26.07
2023-02-16T05:10:06.481Z,25.53
2023-02-16T05:12:57.160Z,26.47
2023-02-16T05:15:26.653Z,26.10
2023-02-16T05:17:54.716Z,25.53
2023-02-16T05:20:43.524Z,26.07
2023-02-16T05:23:11.600Z,27.03
2023-02-16T05:25:39.674Z,27.33
2023-02-16T05:28:07.884Z,25.07
2023-02-16T05:30:37.367Z,25.90
2023-02-16T05:33:05.461Z,25.50
2023-02-16T05:35:34.947Z,26.33
2023-02-16T05:38:03.066Z,25.83
2023-02-16T05:40:31.247Z,26.57
2023-02-16T05:42:59.950Z,27.27
2023-02-16T05:45:28.065Z,27.23
2023-02-16T05:47:57.487Z,27.40
2023-02-16T05:50:25.552Z,26.63
2023-02-16T05:52:53.634Z,25.77
2023-02-16T05:55:21.717Z,28.17
2023-02-16T05:57:49.759Z,26.77
2023-02-16T06:00:18.548Z,27.43
2023-02-16T06:02:46.738Z,25.83
2023-02-16T06:05:16.482Z,25.63
2023-02-16T06:07:45.476Z,26.60
2023-02-16T06:10:13.519Z,26.57
2023-02-16T06:12:43.885Z,26.93
2023-02-16T06:15:12.882Z,27.43
2023-02-16T06:17:40.954Z,26.27
2023-02-16T06:20:10.159Z,26.03
2023-02-16T06:22:39.677Z,24.90
2023-02-16T06:25:08.260Z,25.77
2023-02-16T06:27:36.349Z,24.77
2023-02-16T06:30:06.210Z,24.83
2023-02-16T06:32:34.339Z,26.10
2023-02-16T06:35:02.426Z,24.57
2023-02-16T06:37:30.458Z,26.17
2023-02-16T06:39:59.883Z,25.33
2023-02-16T06:42:27.967Z,23.33
2023-02-16T06:44:56.034Z,24.50
2023-02-16T06:47:24.095Z,24.97
2023-02-16T06:49:52.123Z,25.80
2023-02-16T06:52:20.526Z,27.00
2023-02-16T06:54:48.587Z,25.60
2023-02-16T06:57:18.095Z,26.23
2023-02-16T06:59:46.171Z,24.33
2023-02-16T07:02:14.280Z,26.57
2023-02-16T07:04:42.432Z,24.60
2023-02-16T07:07:10.547Z,25.43
2023-02-16T07:09:38.640Z,25.57
2023-02-16T07:12:07.551Z,25.23
2023-02-16T07:14:37.088Z,24.60
2023-02-16T07:17:05.172Z,25.20
2023-02-16T07:19:33.863Z,25.00
2023-02-16T07:22:02.936Z,24.03
2023-02-16T07:24:31.017Z,23.77
2023-02-16T07:26:59.132Z,24.60
2023-02-16T07:29:27.253Z,25.00
2023-02-16T07:31:57.770Z,24.93
2023-02-16T07:34:25.978Z,23.17
2023-02-16T07:36:54.000Z,24.53
2023-02-16T07:39:22.129Z,25.70
2023-02-16T07:41:50.187Z,24.27
2023-02-16T07:44:18.150Z,25.03
2023-02-16T07:46:46.229Z,24.03
2023-02-16T07:49:15.692Z,23.53
2023-02-16T07:51:44.967Z,23.13
2023-02-16T07:54:13.214Z,22.47
2023-02-16T07:56:41.268Z,23.43
2023-02-16T07:59:09.353Z,23.17
2023-02-16T08:01:40.086Z,22.50
2023-02-16T08:04:08.316Z,21.90
2023-02-16T08:06:37.918Z,22.47
2023-02-16T08:09:06.143Z,23.40
2023-02-16T08:11:34.362Z,22.80
2023-02-16T08:14:02.431Z,23.00
2023-02-16T08:16:30.876Z,22.53
2023-02-16T08:19:01.256Z,21.90
2023-02-16T08:21:31.078Z,21.27
2023-02-16T08:24:02.600Z,22.63
2023-02-16T08:26:36.835Z,22.33
2023-02-16T08:29:06.038Z,21.97
2023-02-16T08:31:38.259Z,22.77
2023-02-16T08:34:07.241Z,22.10
2023-02-16T08:36:38.604Z,22.13
2023-02-16T08:39:11.903Z,22.67
2023-02-16T08:41:40.528Z,22.83
2023-02-16T08:44:09.597Z,22.70
2023-02-16T08:46:40.334Z,22.07
2023-02-16T08:49:09.069Z,22.03
2023-02-16T08:51:42.255Z,22.73
2023-02-16T08:54:17.312Z,23.83
2023-02-16T08:56:47.887Z,21.63
2023-02-16T08:59:16.960Z,21.37
2023-02-16T09:02:25.740Z,22.47
2023-02-16T09:04:53.855Z,23.27
2023-02-16T09:07:22.314Z,22.37
2023-02-16T09:09:53.056Z,25.23
2023-02-16T09:12:21.118Z,24.33
2023-02-16T09:14:49.268Z,23.80
2023-02-16T09:17:17.380Z,23.83
2023-02-16T09:19:45.544Z,22.80
2023-02-16T09:22:13.968Z,23.27
2023-02-16T09:24:42.116Z,23.57
2023-02-16T09:27:11.621Z,22.60
2023-02-16T09:29:40.433Z,22.03
2023-02-16T09:32:09.884Z,21.77
2023-02-16T09:34:38.373Z,22.23
2023-02-16T09:37:06.459Z,24.37
2023-02-16T09:39:34.606Z,22.10
2023-02-16T09:42:12.337Z,23.00
2023-02-16T09:44:50.884Z,24.27
2023-02-16T09:47:23.630Z,23.77
2023-02-16T09:49:52.880Z,21.53
2023-02-16T09:52:27.857Z,23.13
2023-02-16T09:54:58.101Z,22.03
2023-02-16T09:57:42.231Z,22.63
2023-02-16T10:00:25.740Z,22.70
2023-02-16T10:02:58.556Z,22.80
2023-02-16T10:05:32.547Z,23.43
2023-02-16T10:08:09.501Z,23.00
2023-02-16T10:10:48.185Z,21.77
2023-02-16T10:13:27.197Z,23.40
2023-02-16T10:15:58.403Z,25.27
2023-02-16T10:18:33.482Z,24.13
2023-02-16T10:21:06.624Z,23.50
2023-02-16T10:23:45.257Z,24.27
2023-02-16T10:26:19.745Z,24.37
2023-02-16T10:28:50.293Z,23.10
2023-02-16T10:31:29.123Z,22.80
2023-02-16T10:34:10.116Z,24.27
2023-02-16T10:36:57.963Z,24.70
2023-02-16T10:39:34.377Z,23.80
2023-02-16T10:42:09.865Z,24.27
2023-02-16T10:44:41.579Z,24.93
2023-02-16T10:47:23.282Z,25.33
2023-02-16T10:49:51.571Z,26.17
2023-02-16T10:52:21.072Z,24.53
2023-02-16T10:54:49.465Z,24.10
2023-02-16T10:57:26.541Z,24.50
2023-02-16T10:59:55.833Z,26.57
2023-02-16T11:02:29.180Z,24.93
2023-02-16T11:04:58.479Z,26.67
2023-02-16T11:07:28.316Z,25.17
2023-02-16T11:09:58.386Z,26.57
2023-02-16T11:12:32.503Z,26.40
2023-02-16T11:15:04.280Z,27.20
2023-02-16T11:17:49.029Z,27.67
2023-02-16T11:20:29.594Z,26.83
2023-02-16T11:23:14.687Z,26.97
2023-02-16T11:25:43.430Z,28.70
2023-02-16T11:28:12.444Z,26.87
2023-02-16T11:30:43.441Z,28.20
2023-02-16T11:33:27.668Z,26.70
2023-02-16T11:35:56.609Z,26.40
2023-02-16T11:38:30.151Z,28.63
2023-02-16T11:40:59.338Z,29.33
2023-02-16T11:43:30.182Z,26.73
2023-02-16T11:46:00.814Z,27.53
2023-02-16T11:48:32.665Z,29.40
2023-02-16T11:51:02.940Z,27.60
2023-02-16T11:53:36.843Z,28.60
2023-02-16T11:56:22.302Z,31.50
2023-02-16T11:59:05.762Z,27.90
2023-02-16T12:01:48.682Z,29.23
2023-02-16T12:04:28.725Z,29.33
2023-02-16T12:07:04.644Z,27.73
2023-02-16T12:09:42.213Z,27.77
2023-02-16T12:12:14.803Z,26.80
2023-02-16T12:14:58.450Z,26.10
2023-02-16T12:17:44.714Z,25.67
2023-02-16T12:20:26.373Z,26.37
2023-02-16T12:23:03.641Z,26.43
2023-02-16T12:25:39.153Z,26.50
2023-02-16T12:28:15.989Z,26.93
2023-02-16T12:30:53.969Z,25.93
2023-02-16T12:33:32.494Z,26.27
2023-02-16T12:36:30.319Z,26.07
2023-02-16T12:39:08.693Z,24.23
2023-02-16T12:41:45.661Z,25.60
2023-02-16T12:44:17.488Z,26.30
2023-02-16T12:46:48.718Z,24.53
2023-02-16T12:49:24.443Z,24.40
2023-02-16T12:51:58.363Z,23.77
2023-02-16T12:54:31.532Z,24.07
2023-02-16T12:57:03.774Z,24.87
2023-02-16T12:59:39.923Z,25.27
2023-02-16T13:05:52.412Z,24.03
2023-02-16T13:08:31.280Z,24.77
2023-02-16T13:11:08.568Z,23.73
2023-02-16T13:13:37.804Z,24.47
2023-02-16T13:16:27.695Z,24.80
2023-02-16T13:18:58.240Z,24.93
2023-02-16T13:21:51.184Z,24.60
2023-02-16T13:24:30.299Z,25.63
2023-02-16T13:27:09.457Z,23.43
2023-02-16T13:30:00.334Z,23.77
2023-02-16T13:32:52.254Z,25.97
2023-02-16T13:35:48.661Z,24.13
2023-02-16T13:38:31.773Z,22.57
2023-02-16T13:41:13.865Z,22.97
2023-02-16T13:43:45.105Z,22.33
2023-02-16T13:46:19.587Z,22.90
2023-02-16T13:48:50.029Z,22.20
2023-02-16T13:51:21.976Z,23.63
2023-02-16T14:02:31.015Z,21.30
2023-02-16T14:05:10.690Z,22.10
2023-02-16T14:07:39.376Z,21.60
2023-02-16T14:10:13.911Z,20.63
2023-02-16T14:12:42.544Z,20.00
2023-02-16T14:15:20.924Z,19.77
2023-02-16T14:17:49.190Z,19.73
2023-02-16T14:20:31.559Z,20.40
2023-02-16T14:23:01.114Z,17.97
2023-02-16T14:25:38.987Z,19.47
2023-02-16T14:28:23.203Z,18.57
2023-02-16T14:30:54.800Z,19.33
2023-02-16T14:33:31.763Z,17.40
2023-02-16T14:36:15.188Z,16.30
2023-02-16T14:38:45.891Z,17.47
2023-02-16T14:41:26.902Z,16.17
2023-02-16T14:44:03.314Z,16.03
2023-02-16T14:46:52.341Z,16.97
2023-02-16T14:49:45.461Z,15.90
2023-02-16T14:52:53.870Z,16.13
2023-02-16T14:56:10.959Z,15.33
2023-02-16T14:58:46.619Z,14.83
2023-02-16T15:01:16.823Z,14.27
2023-02-16T15:03:48.212Z,14.73
2023-02-16T15:06:22.409Z,13.33
2023-02-16T15:08:58.227Z,14.93
2023-02-16T15:11:32.354Z,14.23
2023-02-16T15:14:08.014Z,13.10
2023-02-16T15:16:39.203Z,13.70
2023-02-16T15:19:12.158Z,13.90
2023-02-16T15:21:40.377Z,13.80
2023-02-16T15:24:23.042Z,13.23
2023-02-16T15:26:56.351Z,13.60
2023-02-16T15:29:26.958Z,13.50
2023-02-16T15:31:56.841Z,14.37
2023-02-16T15:34:33.244Z,13.20
2023-02-16T15:37:02.945Z,13.83
2023-02-16T15:39:46.380Z,14.70
2023-02-16T15:42:23.743Z,13.60
2023-02-16T15:44:52.534Z,13.30
2023-02-16T15:47:24.217Z,13.40
2023-02-16T15:49:53.020Z,14.17
2023-02-16T15:52:30.100Z,12.80
2023-02-16T15:55:01.779Z,14.47
2023-02-16T15:57:32.182Z,13.50
2023-02-16T16:00:03.122Z,13.83
2023-02-16T16:02:36.186Z,14.57
2023-02-16T16:05:08.033Z,14.00
2023-02-16T16:07:39.986Z,12.97
2023-02-16T16:10:16.799Z,14.70
2023-02-16T16:12:46.276Z,14.20
2023-02-16T16:15:20.800Z,14.67
2023-02-16T16:17:49.107Z,14.17
2023-02-16T16:20:29.230Z,14.63
2023-02-16T16:22:58.666Z,14.50
2023-02-16T16:25:38.758Z,14.37
2023-02-16T16:28:09.722Z,13.33
2023-02-16T16:30:43.882Z,14.93
2023-02-16T16:33:14.084Z,15.27
2023-02-16T16:35:44.389Z,15.07
2023-02-16T16:38:25.055Z,15.33
2023-02-16T16:40:56.787Z,13.47
2023-02-16T16:43:29.209Z,14.80
2023-02-16T16:46:11.421Z,15.70
2023-02-16T16:48:44.904Z,14.87
2023-02-16T16:51:15.510Z,15.00
2023-02-16T16:53:52.943Z,15.50
2023-02-16T16:56:23.073Z,14.63
2023-02-16T16:58:52.378Z,15.80
2023-02-16T17:01:21.966Z,16.00
2023-02-16T17:03:50.316Z,16.37
2023-02-16T17:06:19.188Z,16.37
2023-02-16T17:08:48.146Z,16.73
2023-02-16T17:11:26.229Z,16.77
2023-02-16T17:13:55.639Z,15.67
2023-02-16T17:16:27.832Z,18.47
2023-02-16T17:18:56.319Z,18.43
2023-02-16T17:21:24.388Z,18.40
2023-02-16T17:23:53.617Z,18.63
2023-02-16T17:26:22.356Z,18.87
2023-02-16T17:28:52.378Z,19.70
2023-02-16T17:31:20.710Z,20.20
2023-02-16T17:33:48.976Z,19.93
2023-02-16T17:36:18.135Z,20.50
2023-02-16T17:38:46.377Z,19.53
2023-02-16T17:41:21.303Z,19.67
2023-02-16T17:43:49.508Z,20.30
2023-02-16T17:46:21.692Z,20.43
2023-02-16T17:48:52.173Z,19.90
2023-02-16T17:51:22.999Z,18.83
2023-02-16T17:53:51.173Z,19.30
2023-02-16T17:56:22.407Z,19.73
2023-02-16T17:58:50.987Z,20.67
2023-02-16T18:01:21.969Z,20.40
2023-02-16T18:03:50.096Z,21.67
2023-02-16T18:06:20.089Z,22.17
2023-02-16T18:08:48.321Z,22.67
2023-02-16T18:11:16.418Z,21.50
2023-02-16T18:13:45.102Z,21.17
2023-02-16T18:16:18.529Z,21.80
2023-02-16T18:18:48.344Z,21.37
2023-02-16T18:21:16.527Z,20.93
2023-02-16T18:23:44.769Z,21.03
2023-02-16T18:26:14.925Z,18.90
2023-02-16T18:28:43.145Z,19.53
2023-02-16T18:31:11.912Z,20.37
2023-02-16T18:33:40.138Z,20.03
2023-02-16T18:36:10.398Z,19.60
2023-02-16T18:38:38.693Z,21.23
2023-02-16T18:41:06.863Z,20.90
2023-02-16T18:43:35.823Z,20.23
2023-02-16T18:46:06.999Z,21.10
2023-02-16T18:48:35.578Z,19.77
2023-02-16T18:51:05.638Z,19.53
2023-02-16T18:53:37.597Z,20.47
2023-02-16T18:56:06.548Z,19.37
2023-02-16T18:58:34.944Z,21.73
2023-02-16T19:01:11.822Z,21.23
2023-02-16T19:03:40.528Z,20.67
2023-02-16T19:06:09.560Z,20.17
2023-02-16T19:08:39.053Z,22.40
2023-02-16T19:11:07.264Z,20.30
2023-02-16T19:13:35.380Z,19.30
2023-02-16T19:16:03.999Z,20.17
2023-02-16T19:18:32.415Z,21.37
2023-02-16T19:21:00.544Z,21.20
2023-02-16T19:23:28.650Z,21.07
2023-02-16T19:25:58.176Z,20.07
2023-02-16T19:28:26.319Z,21.43
2023-02-16T19:30:54.484Z,21.03
2023-02-16T19:33:22.630Z,20.87
2023-02-16T19:35:50.710Z,20.20
2023-02-16T19:38:18.806Z,21.57
2023-02-16T19:40:46.953Z,21.57
2023-02-16T19:43:16.480Z,22.67
2023-02-16T19:45:44.666Z,22.23
2023-02-16T19:48:12.797Z,22.13
2023-02-16T19:50:40.898Z,22.70
2023-02-16T19:53:09.236Z,22.87
2023-02-16T19:55:41.466Z,21.80
2023-02-16T19:58:09.713Z,22.27
2023-02-16T20:00:39.519Z,23.80
2023-02-16T20:03:07.774Z,22.47
2023-02-16T20:05:35.963Z,21.40
2023-02-16T20:08:04.139Z,24.33
2023-02-16T20:10:33.384Z,23.43
2023-02-16T20:13:01.613Z,23.00
2023-02-16T20:15:29.746Z,23.43
2023-02-16T20:17:59.190Z,22.90
2023-02-16T20:20:27.475Z,22.67
2023-02-16T20:22:55.577Z,25.67
2023-02-16T20:25:23.732Z,21.40
2023-02-16T20:27:51.854Z,24.53
2023-02-16T20:30:24.197Z,23.47
2023-02-16T20:32:52.603Z,23.67
2023-02-16T20:35:22.083Z,23.73
2023-02-16T20:37:50.234Z,22.30
2023-02-16T20:40:20.370Z,22.80
2023-02-16T20:42:48.477Z,22.33
2023-02-16T20:45:16.725Z,24.60
2023-02-16T20:47:44.800Z,22.50
2023-02-16T20:50:13.132Z,23.50
2023-02-16T20:52:44.032Z,22.57
2023-02-16T20:55:12.211Z,23.40
2023-02-16T20:57:40.500Z,23.70
2023-02-16T21:00:13.316Z,23.03
2023-02-16T21:02:41.797Z,22.73
2023-02-16T21:05:11.036Z,21.67
2023-02-16T21:07:39.361Z,22.70
2023-02-16T21:10:11.368Z,23.17
2023-02-16T21:12:39.569Z,22.20
2023-02-16T21:15:09.981Z,22.67
2023-02-16T21:17:38.316Z,21.87
2023-02-16T21:20:07.595Z,23.37
2023-02-16T21:22:35.990Z,22.87
2023-02-16T21:25:04.165Z,22.90
2023-02-16T21:27:33.669Z,21.37
2023-02-16T21:30:02.395Z,23.07
2023-02-16T21:32:30.514Z,22.60
2023-02-16T21:34:58.727Z,22.43
2023-02-16T21:37:26.801Z,23.00
2023-02-16T21:40:14.816Z,22.23
2023-02-16T21:42:44.345Z,22.83
2023-02-16T21:45:17.067Z,23.07
2023-02-16T21:48:04.727Z,23.40
2023-02-16T21:50:36.835Z,22.73
2023-02-16T21:53:05.486Z,24.03
2023-02-16T21:55:51.165Z,22.53
2023-02-16T21:58:21.446Z,22.77
2023-02-16T22:00:51.683Z,21.33
2023-02-16T22:03:20.518Z,22.70
2023-02-16T22:05:48.732Z,23.53
2023-02-16T22:08:17.875Z,23.43
2023-02-16T22:10:46.253Z,24.33
2023-02-16T22:13:15.115Z,25.10
2023-02-16T22:15:44.556Z,24.50
2023-02-16T22:18:12.692Z,23.83
2023-02-16T22:20:40.864Z,23.40
2023-02-16T22:23:08.960Z,25.27
2023-02-16T22:25:40.012Z,23.53
2023-02-16T22:28:08.128Z,24.47
2023-02-16T22:30:37.993Z,25.27
2023-02-16T22:33:07.535Z,24.13
2023-02-16T22:35:35.634Z,24.97
2023-02-16T22:38:04.096Z,24.10
2023-02-16T22:40:32.247Z,23.67
2023-02-16T22:43:00.311Z,23.33
2023-02-16T22:45:30.085Z,25.07
2023-02-16T22:47:58.430Z,22.40
2023-02-16T22:50:27.959Z,23.10
2023-02-16T22:52:56.148Z,22.93
2023-02-16T22:55:24.278Z,23.50
2023-02-16T22:57:52.417Z,25.27
2023-02-16T23:00:20.751Z,23.80
2023-02-16T23:02:48.869Z,24.03
2023-02-16T23:05:17.141Z,24.30
2023-02-16T23:07:46.657Z,24.13
2023-02-16T23:10:16.066Z,23.23
2023-02-16T23:12:44.197Z,23.70
2023-02-16T23:15:12.307Z,24.27
2023-02-16T23:17:40.376Z,22.50
2023-02-16T23:20:09.703Z,23.60
2023-02-16T23:22:37.821Z,23.53
2023-02-16T23:25:25.176Z,22.70
2023-02-16T23:27:53.378Z,22.63
2023-02-16T23:30:21.849Z,20.47
2023-02-16T23:32:50.024Z,21.10
2023-02-16T23:35:18.290Z,20.20
2023-02-16T23:37:47.715Z,18.17
2023-02-16T23:40:17.217Z,18.07
2023-02-16T23:42:45.311Z,16.37
2023-02-16T23:45:13.362Z,17.20
2023-02-16T23:47:41.542Z,14.77
2023-02-16T23:50:10.168Z,14.60
2023-02-16T23:52:39.488Z,13.90
2023-02-16T23:55:08.319Z,13.67
2023-02-16T23:57:37.755Z,13.97
